Time;durP1;ratioP1;P1;durP2;ratioP2;P2;SDS_P1;SDS_P2;PMS_P1;PMS_P2;Temp;Humidity;BMP_temperature;BMP_pressure;BME280_temperature;BME280_humidity;BME280_pressure;Samples;Min_cycle;Max_cycle;Signal;HPM_P1;HPM_P2
2022/09/15 00:00:16;;;;;;;6.80;3.70;;;;;;;;;;110039;1252;34902;-34
2022/09/15 00:03:07;;;;;;;5.90;4.00;;;;;;;;;;110067;1252;36978;-34
2022/09/15 00:05:38;;;;;;;6.60;4.10;;;;;;;;;;110016;1252;36845;-34
2022/09/15 00:08:11;;;;;;;6.00;3.50;;;;;;;;;;110039;1252;37008;-34
2022/09/15 00:10:48;;;;;;;7.00;4.10;;;;;;;;;;110037;1253;36870;-34
2022/09/15 00:13:20;;;;;;;6.30;3.80;;;;;;;;;;110054;1252;36754;-34
2022/09/15 00:15:51;;;;;;;6.10;3.60;;;;;;;;;;110009;1252;36830;-34
2022/09/15 00:18:22;;;;;;;6.10;4.00;;;;;;;;;;110075;1252;36903;-34
2022/09/15 00:20:52;;;;;;;6.70;4.00;;;;;;;;;;110035;1252;36863;-34
2022/09/15 00:23:23;;;;;;;6.30;4.10;;;;;;;;;;110053;1253;33803;-33
2022/09/15 00:25:57;;;;;;;5.70;3.70;;;;;;;;;;110012;1252;36332;-33
2022/09/15 00:28:31;;;;;;;6.80;4.00;;;;;;;;;;110057;1252;36839;-34
2022/09/15 00:31:04;;;;;;;;;;;;;;;;;;110221;1251;36878;-34
2022/09/15 00:33:35;;;;;;;5.70;3.80;;;;;;;;;;110210;1251;35936;-34
2022/09/15 00:36:08;;;;;;;5.40;3.30;;;;;;;;;;110136;1251;36754;-33
2022/09/15 00:38:40;;;;;;;6.70;3.90;;;;;;;;;;110238;1251;36437;-33
2022/09/15 00:41:18;;;;;;;5.80;3.70;;;;;;;;;;110184;1251;37107;-33
2022/09/15 00:43:55;;;;;;;5.80;4.00;;;;;;;;;;110205;1251;36418;-33
2022/09/15 00:46:28;;;;;;;5.20;3.60;;;;;;;;;;110154;1251;37113;-33
2022/09/15 00:49:07;;;;;;;5.60;3.30;;;;;;;;;;110186;1251;36962;-33
2022/09/15 00:51:45;;;;;;;5.60;3.50;;;;;;;;;;110201;1251;36382;-33
2022/09/15 00:54:18;;;;;;;6.10;3.60;;;;;;;;;;110188;1251;36473;-33
2022/09/15 00:56:52;;;;;;;6.40;4.00;;;;;;;;;;110159;1251;33858;-34
2022/09/15 00:59:28;;;;;;;6.20;3.80;;;;;;;;;;110192;1251;37244;-34
2022/09/15 01:02:04;;;;;;;5.60;3.50;;;;;;;;;;110165;1251;36766;-33
2022/09/15 01:04:35;;;;;;;6.10;4.00;;;;;;;;;;110225;1251;36763;-33
2022/09/15 01:07:09;;;;;;;5.20;3.90;;;;;;;;;;110156;1251;36362;-33
2022/09/15 01:09:45;;;;;;;6.50;3.60;;;;;;;;;;110236;1251;36298;-33
2022/09/15 01:12:16;;;;;;;6.00;3.50;;;;;;;;;;110205;1251;37009;-33
2022/09/15 01:14:47;;;;;;;5.70;3.80;;;;;;;;;;110212;1251;35067;-33
2022/09/15 01:17:29;;;;;;;5.80;3.60;;;;;;;;;;110153;1251;33795;-33
2022/09/15 01:20:34;;;;;;;6.30;3.40;;;;;;;;;;110200;1251;36454;-33
2022/09/15 01:23:23;;;;;;;5.70;3.40;;;;;;;;;;110210;1251;36442;-33
2022/09/15 01:26:17;;;;;;;6.00;4.10;;;;;;;;;;110145;1251;35008;-33
2022/09/15 01:29:14;;;;;;;5.70;3.80;;;;;;;;;;110200;1251;36478;-33
2022/09/15 01:34:50;;;;;;;5.70;3.40;;;;;;;;;;110210;1251;35866;-33
2022/09/15 01:37:29;;;;;;;4.90;3.30;;;;;;;;;;110143;1251;34114;-33
2022/09/15 01:40:01;;;;;;;6.20;3.70;;;;;;;;;;110212;1251;36498;-33
2022/09/15 01:42:34;;;;;;;5.40;3.90;;;;;;;;;;110208;1251;36792;-33
2022/09/15 01:45:10;;;;;;;5.60;3.20;;;;;;;;;;110204;1251;36925;-33
2022/09/15 01:47:45;;;;;;;7.60;4.20;;;;;;;;;;110146;1251;36421;-34
2022/09/15 01:50:20;;;;;;;6.30;4.00;;;;;;;;;;110212;1251;36457;-35
2022/09/15 01:52:55;;;;;;;6.20;3.60;;;;;;;;;;110197;1251;36991;-35
2022/09/15 01:55:35;;;;;;;5.50;3.70;;;;;;;;;;110207;1251;37198;-35
2022/09/15 01:58:06;;;;;;;6.00;3.60;;;;;;;;;;110170;1251;36945;-35
2022/09/15 02:00:42;;;;;;;5.90;3.60;;;;;;;;;;110224;1251;35184;-35
2022/09/15 02:03:21;;;;;;;5.60;4.10;;;;;;;;;;110195;1251;36503;-35
2022/09/15 02:05:57;;;;;;;5.10;3.50;;;;;;;;;;110190;1251;37023;-35
2022/09/15 02:08:34;;;;;;;5.20;3.20;;;;;;;;;;110161;1251;37098;-35
2022/09/15 02:11:15;;;;;;;5.20;3.30;;;;;;;;;;110210;1251;36727;-36
2022/09/15 02:13:56;;;;;;;5.80;4.10;;;;;;;;;;110237;1251;35515;-36
2022/09/15 02:16:32;;;;;;;6.30;3.90;;;;;;;;;;110189;1251;36399;-36
2022/09/15 02:19:10;;;;;;;7.80;4.40;;;;;;;;;;110172;1251;36388;-35
2022/09/15 02:21:57;;;;;;;6.00;3.50;;;;;;;;;;110213;1251;36831;-35
2022/09/15 02:24:34;;;;;;;6.20;3.70;;;;;;;;;;110205;1251;36853;-35
2022/09/15 02:27:09;;;;;;;6.00;3.80;;;;;;;;;;110168;1251;36895;-35
2022/09/15 02:29:42;;;;;;;6.30;3.90;;;;;;;;;;110192;1251;35174;-35
2022/09/15 02:32:15;;;;;;;4.90;3.70;;;;;;;;;;110196;1251;36373;-35
2022/09/15 02:34:50;;;;;;;5.20;3.50;;;;;;;;;;110219;1251;36912;-35
2022/09/15 02:37:23;;;;;;;6.40;3.70;;;;;;;;;;110146;1251;36732;-35
2022/09/15 02:39:57;;;;;;;5.80;3.90;;;;;;;;;;110177;1251;36469;-35
2022/09/15 02:42:30;;;;;;;6.20;4.10;;;;;;;;;;110214;1251;36831;-35
2022/09/15 02:45:02;;;;;;;5.50;3.80;;;;;;;;;;110180;1251;36764;-35
2022/09/15 02:47:33;;;;;;;5.90;3.90;;;;;;;;;;110142;1251;36478;-35
2022/09/15 02:50:04;;;;;;;5.90;3.90;;;;;;;;;;110179;1251;34818;-35
2022/09/15 02:52:35;;;;;;;5.70;4.10;;;;;;;;;;110201;1251;36829;-35
2022/09/15 02:55:09;;;;;;;5.40;4.20;;;;;;;;;;110176;1251;36738;-35
2022/09/15 02:57:40;;;;;;;5.50;4.00;;;;;;;;;;110132;1251;36376;-35
2022/09/15 03:00:16;;;;;;;5.70;4.20;;;;;;;;;;110176;1251;36434;-35
2022/09/15 03:02:49;;;;;;;5.90;3.80;;;;;;;;;;110205;1251;36335;-35
2022/09/15 03:05:22;;;;;;;5.70;4.30;;;;;;;;;;110176;1251;36863;-35
2022/09/15 03:07:53;;;;;;;5.70;3.50;;;;;;;;;;110158;1251;34943;-35
2022/09/15 03:10:26;;;;;;;5.80;4.20;;;;;;;;;;110200;1251;36358;-35
2022/09/15 03:12:56;;;;;;;6.40;3.80;;;;;;;;;;110191;1251;36923;-35
2022/09/15 03:15:28;;;;;;;5.30;3.90;;;;;;;;;;110228;1251;36785;-35
2022/09/15 03:17:59;;;;;;;5.20;3.60;;;;;;;;;;110170;1251;35783;-35
2022/09/15 03:20:29;;;;;;;6.20;4.00;;;;;;;;;;110178;1251;37443;-35
2022/09/15 03:23:02;;;;;;;6.40;4.10;;;;;;;;;;110205;1251;36808;-35
2022/09/15 03:25:33;;;;;;;5.80;4.00;;;;;;;;;;110229;1251;36929;-35
2022/09/15 03:28:04;;;;;;;5.60;3.70;;;;;;;;;;110223;1251;34384;-35
2022/09/15 03:30:37;;;;;;;5.90;3.90;;;;;;;;;;110302;1251;42482;-35
2022/09/15 03:33:08;;;;;;;5.30;4.00;;;;;;;;;;110227;1251;36850;-35
2022/09/15 03:35:41;;;;;;;5.50;4.00;;;;;;;;;;110190;1251;36915;-35
2022/09/15 03:38:12;;;;;;;6.20;4.10;;;;;;;;;;110136;1251;36251;-35
2022/09/15 03:40:43;;;;;;;6.00;3.80;;;;;;;;;;110185;1251;34866;-35
2022/09/15 03:43:14;;;;;;;4.90;3.60;;;;;;;;;;110201;1251;36850;-35
2022/09/15 03:45:45;;;;;;;6.90;4.40;;;;;;;;;;110166;1251;36789;-35
2022/09/15 03:48:16;;;;;;;5.00;3.80;;;;;;;;;;110181;1251;33725;-35
2022/09/15 03:50:47;;;;;;;5.80;3.90;;;;;;;;;;110167;1251;36786;-35
2022/09/15 03:53:19;;;;;;;5.70;3.90;;;;;;;;;;110167;1251;36883;-35
2022/09/15 03:55:50;;;;;;;6.40;4.40;;;;;;;;;;110209;1251;36422;-35
2022/09/15 03:58:21;;;;;;;5.30;4.00;;;;;;;;;;110214;1251;36504;-35
2022/09/15 04:00:52;;;;;;;5.80;4.20;;;;;;;;;;110171;1251;36961;-35
2022/09/15 04:03:22;;;;;;;6.40;4.70;;;;;;;;;;110165;1251;36918;-33
2022/09/15 04:05:53;;;;;;;6.10;4.40;;;;;;;;;;110186;1251;35545;-33
2022/09/15 04:08:24;;;;;;;6.20;4.40;;;;;;;;;;110196;1251;36753;-33
2022/09/15 04:10:54;;;;;;;6.30;4.30;;;;;;;;;;110142;1251;37208;-33
2022/09/15 04:13:25;;;;;;;5.70;4.50;;;;;;;;;;110192;1251;34367;-33
2022/09/15 04:16:02;;;;;;;6.00;4.60;;;;;;;;;;110065;1251;33885;-33
2022/09/15 04:18:33;;;;;;;7.20;4.50;;;;;;;;;;110170;1251;36892;-33
2022/09/15 04:21:05;;;;;;;5.80;4.70;;;;;;;;;;110155;1251;35523;-33
2022/09/15 04:23:39;;;;;;;6.30;4.50;;;;;;;;;;110211;1251;34465;-33
2022/09/15 04:26:14;;;;;;;7.30;4.10;;;;;;;;;;110194;1251;36491;-33
2022/09/15 04:28:44;;;;;;;6.80;4.60;;;;;;;;;;110193;1251;36866;-33
2022/09/15 04:31:19;;;;;;;5.70;4.70;;;;;;;;;;110153;1251;36745;-33
2022/09/15 04:33:54;;;;;;;6.40;4.30;;;;;;;;;;110215;1251;36910;-33
2022/09/15 04:36:27;;;;;;;7.00;4.30;;;;;;;;;;110183;1251;36437;-33
2022/09/15 04:38:58;;;;;;;6.60;4.20;;;;;;;;;;110172;1251;36421;-33
2022/09/15 04:41:29;;;;;;;5.20;3.90;;;;;;;;;;110140;1251;34065;-33
2022/09/15 04:44:01;;;;;;;6.50;4.40;;;;;;;;;;110218;1251;36992;-33
2022/09/15 04:46:31;;;;;;;6.40;4.40;;;;;;;;;;110200;1251;36423;-33
2022/09/15 04:49:02;;;;;;;5.80;4.20;;;;;;;;;;110185;1251;36812;-33
2022/09/15 04:51:33;;;;;;;6.70;4.50;;;;;;;;;;110151;1251;36754;-33
2022/09/15 04:54:04;;;;;;;6.30;4.20;;;;;;;;;;110182;1251;36536;-33
2022/09/15 04:56:35;;;;;;;6.20;4.40;;;;;;;;;;110187;1251;36543;-33
2022/09/15 04:59:05;;;;;;;6.60;4.30;;;;;;;;;;110173;1251;36905;-33
2022/09/15 05:01:36;;;;;;;7.30;4.20;;;;;;;;;;110149;1251;34168;-33
2022/09/15 05:04:07;;;;;;;6.20;4.40;;;;;;;;;;110208;1251;36373;-34
2022/09/15 05:06:40;;;;;;;6.40;4.30;;;;;;;;;;110163;1251;37019;-34
2022/09/15 05:09:12;;;;;;;;;;;;;;;;;;110197;1251;34263;-35
2022/09/15 05:11:43;;;;;;;7.60;4.10;;;;;;;;;;110452;1251;36795;-35
2022/09/15 05:14:14;;;;;;;8.10;4.10;;;;;;;;;;110195;1251;36947;-33
2022/09/15 05:16:44;;;;;;;8.50;4.60;;;;;;;;;;110190;1251;36760;-33
2022/09/15 05:19:15;;;;;;;6.70;4.20;;;;;;;;;;110187;1251;36850;-33
2022/09/15 05:21:46;;;;;;;6.10;4.20;;;;;;;;;;110184;1251;36399;-33
2022/09/15 05:24:16;;;;;;;6.70;4.50;;;;;;;;;;110200;1251;37991;-33
2022/09/15 05:26:47;;;;;;;6.00;3.90;;;;;;;;;;110230;1251;36840;-33
2022/09/15 05:29:18;;;;;;;5.50;3.80;;;;;;;;;;110199;1251;36354;-33
2022/09/15 05:31:49;;;;;;;6.30;4.00;;;;;;;;;;110149;1251;36400;-33
2022/09/15 05:34:22;;;;;;;6.50;4.10;;;;;;;;;;110089;1253;36374;-33
2022/09/15 05:36:52;;;;;;;6.30;4.20;;;;;;;;;;110173;1251;37205;-33
2022/09/15 05:39:23;;;;;;;6.20;4.20;;;;;;;;;;110173;1251;36528;-33
2022/09/15 05:41:54;;;;;;;7.40;4.50;;;;;;;;;;110119;1251;37465;-33
2022/09/15 05:44:25;;;;;;;5.80;4.10;;;;;;;;;;110181;1251;36757;-33
2022/09/15 05:46:57;;;;;;;5.80;4.30;;;;;;;;;;110226;1251;34327;-33
2022/09/15 05:49:28;;;;;;;5.80;4.40;;;;;;;;;;110190;1251;36800;-33
2022/09/15 05:51:59;;;;;;;5.80;3.70;;;;;;;;;;110149;1251;36757;-33
2022/09/15 05:54:30;;;;;;;5.80;3.90;;;;;;;;;;110142;1251;35267;-33
2022/09/15 05:57:03;;;;;;;6.50;4.70;;;;;;;;;;110137;1251;33901;-33
2022/09/15 05:59:34;;;;;;;7.20;4.50;;;;;;;;;;110195;1251;36416;-33
2022/09/15 06:02:06;;;;;;;5.90;4.10;;;;;;;;;;110167;1251;36805;-33
2022/09/15 06:04:38;;;;;;;6.80;4.30;;;;;;;;;;110199;1251;35638;-34
2022/09/15 06:07:08;;;;;;;8.10;4.40;;;;;;;;;;110184;1251;36482;-34
2022/09/15 06:09:42;;;;;;;6.20;4.10;;;;;;;;;;110230;1251;36501;-34
2022/09/15 06:12:16;;;;;;;7.30;5.00;;;;;;;;;;110231;1251;36383;-33
2022/09/15 06:14:51;;;;;;;7.60;4.60;;;;;;;;;;110206;1251;34132;-33
2022/09/15 06:17:24;;;;;;;6.30;4.30;;;;;;;;;;110157;1251;34057;-34
2022/09/15 06:19:59;;;;;;;6.60;4.10;;;;;;;;;;110143;1251;36579;-35
2022/09/15 06:22:32;;;;;;;6.80;4.30;;;;;;;;;;110198;1251;36978;-33
2022/09/15 06:25:09;;;;;;;6.00;4.30;;;;;;;;;;110178;1251;36959;-33
2022/09/15 06:27:41;;;;;;;9.00;4.40;;;;;;;;;;109801;1251;528041;-33
2022/09/15 06:30:13;;;;;;;5.50;4.20;;;;;;;;;;110216;1251;36913;-33
2022/09/15 06:32:45;;;;;;;6.50;4.00;;;;;;;;;;110148;1251;36802;-33
2022/09/15 06:35:17;;;;;;;7.00;4.30;;;;;;;;;;110180;1251;36897;-33
2022/09/15 06:37:48;;;;;;;8.10;4.30;;;;;;;;;;110239;1251;36121;-33
2022/09/15 06:40:18;;;;;;;7.00;4.30;;;;;;;;;;110212;1251;36345;-33
2022/09/15 06:42:49;;;;;;;7.10;4.10;;;;;;;;;;110161;1251;36852;-33
2022/09/15 06:45:20;;;;;;;6.10;4.10;;;;;;;;;;110158;1251;34625;-33
2022/09/15 06:47:55;;;;;;;6.60;3.80;;;;;;;;;;110176;1251;36750;-33
2022/09/15 06:50:26;;;;;;;7.60;4.50;;;;;;;;;;110197;1251;36418;-33
2022/09/15 06:52:56;;;;;;;8.20;4.50;;;;;;;;;;110080;1251;36902;-33
2022/09/15 06:55:27;;;;;;;8.60;4.00;;;;;;;;;;110168;1251;36773;-33
2022/09/15 06:57:58;;;;;;;7.30;4.40;;;;;;;;;;110191;1251;34934;-33
2022/09/15 07:00:29;;;;;;;6.90;3.60;;;;;;;;;;110184;1251;36768;-33
2022/09/15 07:03:00;;;;;;;7.20;4.20;;;;;;;;;;110117;1251;36776;-33
2022/09/15 07:05:32;;;;;;;6.70;4.20;;;;;;;;;;110144;1251;35851;-33
2022/09/15 07:08:04;;;;;;;5.70;3.70;;;;;;;;;;110183;1251;36378;-33
2022/09/15 07:10:35;;;;;;;7.00;4.30;;;;;;;;;;110236;1251;36742;-33
2022/09/15 07:13:06;;;;;;;8.30;4.40;;;;;;;;;;110186;1251;37189;-33
2022/09/15 07:15:37;;;;;;;6.80;3.90;;;;;;;;;;110204;1251;36786;-33
2022/09/15 07:18:11;;;;;;;7.60;4.10;;;;;;;;;;110221;1251;36486;-33
2022/09/15 07:20:42;;;;;;;7.60;4.30;;;;;;;;;;110196;1251;36795;-33
2022/09/15 07:23:12;;;;;;;6.80;4.40;;;;;;;;;;110164;1250;35020;-33
2022/09/15 07:25:45;;;;;;;8.20;4.40;;;;;;;;;;110190;1250;36412;-33
2022/09/15 07:28:18;;;;;;;7.30;4.40;;;;;;;;;;110233;1250;36739;-33
2022/09/15 07:30:52;;;;;;;8.00;3.90;;;;;;;;;;110327;1250;36886;-33
2022/09/15 07:33:23;;;;;;;7.10;4.60;;;;;;;;;;110200;1250;34962;-33
2022/09/15 07:35:54;;;;;;;8.10;4.30;;;;;;;;;;110045;1250;36902;-33
2022/09/15 07:38:25;;;;;;;6.20;3.80;;;;;;;;;;110211;1250;36330;-33
2022/09/15 07:41:01;;;;;;;6.70;3.90;;;;;;;;;;110201;1250;36774;-33
2022/09/15 07:43:33;;;;;;;9.80;4.20;;;;;;;;;;110211;1250;37359;-33
2022/09/15 07:46:04;;;;;;;7.20;3.60;;;;;;;;;;110203;1250;36783;-33
2022/09/15 07:48:36;;;;;;;7.00;3.90;;;;;;;;;;110214;1250;36754;-33
2022/09/15 07:51:07;;;;;;;5.70;3.70;;;;;;;;;;110205;1250;37007;-33
2022/09/15 07:53:38;;;;;;;6.70;3.60;;;;;;;;;;110175;1250;35542;-33
2022/09/15 07:56:12;;;;;;;6.20;3.70;;;;;;;;;;110073;1250;36400;-32
2022/09/15 07:58:45;;;;;;;5.90;3.70;;;;;;;;;;110175;1250;36928;-31
2022/09/15 08:01:18;;;;;;;7.90;3.60;;;;;;;;;;110173;1250;36944;-31
2022/09/15 08:03:50;;;;;;;6.50;3.60;;;;;;;;;;110126;1250;36964;-31
2022/09/15 08:06:23;;;;;;;7.20;3.80;;;;;;;;;;110208;1250;36439;-31
2022/09/15 08:08:55;;;;;;;6.20;3.20;;;;;;;;;;110217;1250;35038;-31
2022/09/15 08:11:25;;;;;;;5.90;3.30;;;;;;;;;;110149;1250;36809;-31
2022/09/15 08:13:56;;;;;;;7.20;3.60;;;;;;;;;;109999;1252;36461;-30
2022/09/15 08:16:27;;;;;;;7.40;3.60;;;;;;;;;;110035;1252;35657;-31
2022/09/15 08:18:58;;;;;;;5.50;3.20;;;;;;;;;;110016;1253;36822;-32
2022/09/15 08:21:29;;;;;;;5.70;2.80;;;;;;;;;;109977;1254;36545;-32
2022/09/15 08:24:01;;;;;;;5.80;3.40;;;;;;;;;;110008;1253;36992;-31
2022/09/15 08:26:32;;;;;;;5.60;2.90;;;;;;;;;;110075;1253;36813;-31
2022/09/15 08:29:03;;;;;;;5.70;3.20;;;;;;;;;;110106;1252;36877;-31
2022/09/15 08:31:34;;;;;;;5.00;3.00;;;;;;;;;;110116;1252;35088;-30
2022/09/15 08:34:06;;;;;;;5.40;2.90;;;;;;;;;;110130;1252;36393;-30
2022/09/15 08:36:36;;;;;;;6.40;3.00;;;;;;;;;;110100;1252;36815;-32
2022/09/15 08:39:08;;;;;;;5.40;3.00;;;;;;;;;;110136;1252;35211;-32
2022/09/15 08:41:42;;;;;;;5.70;2.70;;;;;;;;;;110128;1252;34964;-32
2022/09/15 08:44:22;;;;;;;5.50;2.90;;;;;;;;;;110136;1252;36501;-32
2022/09/15 08:46:58;;;;;;;5.20;2.80;;;;;;;;;;110114;1251;37015;-31
2022/09/15 08:49:34;;;;;;;5.80;2.90;;;;;;;;;;110158;1252;37735;-31
2022/09/15 08:52:12;;;;;;;5.10;2.60;;;;;;;;;;110120;1251;37462;-31
2022/09/15 08:54:43;;;;;;;5.70;3.10;;;;;;;;;;110193;1251;35336;-32
2022/09/15 08:57:20;;;;;;;5.10;2.70;;;;;;;;;;110154;1251;36476;-32
2022/09/15 08:59:50;;;;;;;5.70;3.00;;;;;;;;;;110143;1251;36914;-30
2022/09/15 09:02:42;;;;;;;5.70;2.50;;;;;;;;;;110128;1251;34230;-30
2022/09/15 09:05:20;;;;;;;4.50;2.50;;;;;;;;;;110059;1252;35179;-30
2022/09/15 09:08:06;;;;;;;4.60;2.70;;;;;;;;;;110121;1251;36485;-30
2022/09/15 09:10:47;;;;;;;4.70;2.40;;;;;;;;;;110110;1251;35058;-31
2022/09/15 09:13:28;;;;;;;4.50;2.30;;;;;;;;;;110199;1250;36384;-32
2022/09/15 09:16:11;;;;;;;5.20;2.40;;;;;;;;;;110180;1250;34304;-32
2022/09/15 09:18:55;;;;;;;4.40;2.40;;;;;;;;;;110212;1250;36912;-32
2022/09/15 09:21:29;;;;;;;4.80;2.70;;;;;;;;;;110197;1250;37162;-32
2022/09/15 09:24:05;;;;;;;4.00;2.10;;;;;;;;;;110207;1250;34933;-32
2022/09/15 09:26:38;;;;;;;4.60;2.60;;;;;;;;;;110161;1250;36323;-32
2022/09/15 09:29:15;;;;;;;5.00;2.10;;;;;;;;;;110223;1250;36955;-32
2022/09/15 09:31:53;;;;;;;4.20;2.00;;;;;;;;;;110173;1250;36909;-32
2022/09/15 09:34:34;;;;;;;4.60;2.10;;;;;;;;;;110170;1250;34519;-32
2022/09/15 09:37:11;;;;;;;4.00;1.90;;;;;;;;;;110178;1250;36762;-32
2022/09/15 09:39:42;;;;;;;4.80;2.00;;;;;;;;;;110207;1250;36422;-32
2022/09/15 09:42:17;;;;;;;4.10;2.60;;;;;;;;;;110193;1250;36783;-32
2022/09/15 09:44:50;;;;;;;3.60;1.70;;;;;;;;;;110178;1250;37337;-31
2022/09/15 09:47:26;;;;;;;3.50;1.90;;;;;;;;;;110177;1250;35168;-31
2022/09/15 09:49:57;;;;;;;3.50;1.60;;;;;;;;;;110201;1250;36365;-31
2022/09/15 09:52:39;;;;;;;4.20;1.90;;;;;;;;;;110213;1250;37003;-31
2022/09/15 09:55:23;;;;;;;4.00;1.80;;;;;;;;;;110189;1250;36732;-31
2022/09/15 09:57:54;;;;;;;4.10;1.70;;;;;;;;;;110162;1250;35241;-31
2022/09/15 10:00:41;;;;;;;4.20;1.60;;;;;;;;;;110196;1250;36937;-33
2022/09/15 10:03:15;;;;;;;3.90;1.50;;;;;;;;;;110194;1250;34228;-34
2022/09/15 10:06:01;;;;;;;3.10;1.40;;;;;;;;;;110204;1250;36425;-34
2022/09/15 10:08:36;;;;;;;3.30;1.50;;;;;;;;;;110131;1250;38468;-34
2022/09/15 10:11:09;;;;;;;3.30;1.50;;;;;;;;;;110185;1250;37000;-34
2022/09/15 10:13:55;;;;;;;3.20;1.30;;;;;;;;;;110195;1250;36880;-34
2022/09/15 10:16:26;;;;;;;3.90;1.40;;;;;;;;;;110163;1250;37321;-34
2022/09/15 10:18:59;;;;;;;3.30;1.30;;;;;;;;;;110187;1250;39131;-34
2022/09/15 10:21:29;;;;;;;3.20;1.40;;;;;;;;;;110196;1250;36750;-34
2022/09/15 10:24:31;;;;;;;3.50;1.30;;;;;;;;;;110221;1250;37010;-34
2022/09/15 10:27:17;;;;;;;2.90;1.10;;;;;;;;;;110174;1249;36751;-34
2022/09/15 10:29:49;;;;;;;3.10;1.10;;;;;;;;;;110202;1249;36747;-34
2022/09/15 10:32:29;;;;;;;3.20;1.20;;;;;;;;;;110222;1250;36066;-34
2022/09/15 10:35:12;;;;;;;3.40;1.30;;;;;;;;;;110184;1250;34320;-34
2022/09/15 10:37:57;;;;;;;2.70;1.10;;;;;;;;;;110187;1250;36424;-34
2022/09/15 10:40:37;;;;;;;2.30;1.30;;;;;;;;;;110197;1250;36741;-34
2022/09/15 10:43:25;;;;;;;3.10;1.20;;;;;;;;;;110205;1250;35153;-34
2022/09/15 10:46:02;;;;;;;3.40;1.10;;;;;;;;;;110151;1249;36913;-34
2022/09/15 10:48:46;;;;;;;3.00;1.20;;;;;;;;;;110167;1250;36893;-34
2022/09/15 10:51:30;;;;;;;3.20;1.10;;;;;;;;;;110181;1249;36355;-34
2022/09/15 10:54:24;;;;;;;3.10;1.10;;;;;;;;;;110198;1250;36416;-34
2022/09/15 10:57:05;;;;;;;3.40;1.20;;;;;;;;;;110208;1250;36863;-34
2022/09/15 10:59:46;;;;;;;2.90;1.20;;;;;;;;;;110206;1250;42452;-33
2022/09/15 11:02:43;;;;;;;3.00;1.10;;;;;;;;;;110213;1250;33904;-33
2022/09/15 11:05:27;;;;;;;3.00;1.30;;;;;;;;;;110210;1249;36368;-33
2022/09/15 11:08:03;;;;;;;;;;;;;;;;;;110219;1249;36392;-33
2022/09/15 11:10:45;;;;;;;2.50;1.00;;;;;;;;;;110254;1250;36150;-33
2022/09/15 11:13:27;;;;;;;3.10;1.30;;;;;;;;;;110226;1250;36853;-33
2022/09/15 11:16:06;;;;;;;3.60;1.20;;;;;;;;;;110254;1250;36885;-33
2022/09/15 11:18:53;;;;;;;3.20;1.20;;;;;;;;;;110178;1250;36474;-33
2022/09/15 11:21:29;;;;;;;2.80;1.10;;;;;;;;;;110196;1250;36401;-33
2022/09/15 11:24:16;;;;;;;3.20;1.30;;;;;;;;;;110242;1250;36381;-33
2022/09/15 11:26:51;;;;;;;4.50;1.20;;;;;;;;;;110213;1250;36997;-33
2022/09/15 11:29:26;;;;;;;3.00;1.30;;;;;;;;;;110195;1250;36874;-33
2022/09/15 11:32:03;;;;;;;2.70;1.00;;;;;;;;;;110220;1250;36757;-33
2022/09/15 11:34:38;;;;;;;4.10;1.50;;;;;;;;;;110251;1250;35000;-33
2022/09/15 11:37:15;;;;;;;4.10;1.20;;;;;;;;;;110224;1250;36384;-33
2022/09/15 11:39:53;;;;;;;3.40;1.50;;;;;;;;;;110204;1250;35506;-33
2022/09/15 11:42:33;;;;;;;3.70;1.50;;;;;;;;;;110196;1250;37374;-33
2022/09/15 11:45:06;;;;;;;4.00;1.50;;;;;;;;;;110168;1250;36968;-33
2022/09/15 11:47:38;;;;;;;;;;;;;;;;;;110215;1250;36744;-33
2022/09/15 11:50:17;;;;;;;4.50;1.30;;;;;;;;;;110176;1250;36447;-33
2022/09/15 11:52:56;;;;;;;3.50;1.40;;;;;;;;;;110222;1250;36984;-33
2022/09/15 11:55:34;;;;;;;3.20;1.40;;;;;;;;;;110208;1250;36792;-33
2022/09/15 11:58:17;;;;;;;3.90;1.20;;;;;;;;;;110216;1250;37091;-33
2022/09/15 12:00:54;;;;;;;3.20;1.30;;;;;;;;;;110157;1249;36744;-33
2022/09/15 12:03:31;;;;;;;3.80;1.40;;;;;;;;;;110228;1249;36441;-33
2022/09/15 12:06:12;;;;;;;3.40;1.40;;;;;;;;;;110225;1249;36335;-33
2022/09/15 12:08:50;;;;;;;4.10;1.40;;;;;;;;;;110174;1249;36330;-33
2022/09/15 12:11:24;;;;;;;3.90;1.50;;;;;;;;;;110217;1250;34765;-33
2022/09/15 12:13:59;;;;;;;3.30;1.40;;;;;;;;;;110206;1250;36802;-33
2022/09/15 12:16:31;;;;;;;3.90;1.40;;;;;;;;;;110191;1250;36339;-33
2022/09/15 12:19:09;;;;;;;3.40;1.30;;;;;;;;;;110189;1250;36824;-33
2022/09/15 12:21:46;;;;;;;3.50;1.50;;;;;;;;;;110211;1250;40473;-35
2022/09/15 12:24:23;;;;;;;4.30;1.50;;;;;;;;;;110197;1250;36773;-35
2022/09/15 12:26:55;;;;;;;4.40;1.40;;;;;;;;;;110184;1250;37042;-35
2022/09/15 12:29:47;;;;;;;4.30;1.50;;;;;;;;;;110140;1250;34008;-35
2022/09/15 12:32:25;;;;;;;3.90;1.30;;;;;;;;;;110192;1250;41258;-34
2022/09/15 12:35:04;;;;;;;4.00;1.40;;;;;;;;;;110219;1250;34953;-34
2022/09/15 12:37:43;;;;;;;3.30;1.20;;;;;;;;;;110227;1250;37215;-34
2022/09/15 12:40:33;;;;;;;4.60;1.40;;;;;;;;;;110187;1250;36745;-33
2022/09/15 12:43:17;;;;;;;3.00;1.30;;;;;;;;;;110207;1250;35170;-33
2022/09/15 12:45:57;;;;;;;3.40;1.30;;;;;;;;;;110212;1250;35156;-33
2022/09/15 12:48:30;;;;;;;3.20;1.30;;;;;;;;;;110234;1250;35142;-33
2022/09/15 12:51:09;;;;;;;4.60;1.20;;;;;;;;;;110138;1250;36783;-33
2022/09/15 12:53:49;;;;;;;3.20;1.40;;;;;;;;;;110175;1250;36910;-34
2022/09/15 12:56:26;;;;;;;4.10;1.50;;;;;;;;;;110160;1250;36935;-34
2022/09/15 12:59:02;;;;;;;2.90;1.40;;;;;;;;;;110208;1250;36359;-34
2022/09/15 13:01:45;;;;;;;4.20;1.60;;;;;;;;;;110169;1250;35662;-33
2022/09/15 13:04:44;;;;;;;3.40;1.30;;;;;;;;;;110196;1250;36362;-33
2022/09/15 13:07:37;;;;;;;2.90;1.20;;;;;;;;;;110180;1250;33905;-33
2022/09/15 13:10:35;;;;;;;3.20;1.40;;;;;;;;;;110173;1250;35874;-33
2022/09/15 13:13:21;;;;;;;4.10;1.30;;;;;;;;;;110123;1250;42676;-33
2022/09/15 13:15:54;;;;;;;3.40;1.70;;;;;;;;;;110200;1250;36462;-33
2022/09/15 13:18:26;;;;;;;3.00;1.20;;;;;;;;;;110202;1250;36878;-33
2022/09/15 13:21:05;;;;;;;3.20;1.30;;;;;;;;;;110159;1250;36911;-33
2022/09/15 13:23:41;;;;;;;3.80;1.40;;;;;;;;;;110245;1250;36326;-33
2022/09/15 13:26:16;;;;;;;2.90;1.20;;;;;;;;;;110208;1250;36729;-33
2022/09/15 13:28:48;;;;;;;3.00;1.40;;;;;;;;;;110233;1250;36340;-34
2022/09/15 13:31:29;;;;;;;2.90;1.20;;;;;;;;;;110197;1250;36841;-34
2022/09/15 13:34:35;;;;;;;3.70;1.30;;;;;;;;;;110202;1250;36115;-34
2022/09/15 13:37:20;;;;;;;3.80;1.30;;;;;;;;;;110207;1250;36438;-34
2022/09/15 13:40:14;;;;;;;3.60;1.30;;;;;;;;;;110198;1250;36865;-34
2022/09/15 13:42:59;;;;;;;3.50;1.30;;;;;;;;;;110159;1250;37256;-34
2022/09/15 13:45:41;;;;;;;4.20;1.50;;;;;;;;;;110219;1250;36735;-34
2022/09/15 13:48:32;;;;;;;3.10;1.40;;;;;;;;;;110252;1250;37100;-34
2022/09/15 13:51:06;;;;;;;3.30;1.10;;;;;;;;;;110245;1249;33787;-34
2022/09/15 13:53:48;;;;;;;3.60;1.40;;;;;;;;;;110191;1250;35571;-34
2022/09/15 13:56:23;;;;;;;3.60;1.30;;;;;;;;;;110206;1250;36969;-34
2022/09/15 13:58:55;;;;;;;3.00;1.40;;;;;;;;;;110236;1250;36342;-34
2022/09/15 14:01:29;;;;;;;3.40;1.40;;;;;;;;;;110223;1249;34288;-34
2022/09/15 14:04:04;;;;;;;4.60;1.70;;;;;;;;;;110198;1250;35165;-34
2022/09/15 14:06:38;;;;;;;4.90;1.50;;;;;;;;;;110213;1250;36662;-34
2022/09/15 14:09:13;;;;;;;3.40;1.50;;;;;;;;;;110193;1249;36869;-34
2022/09/15 14:11:46;;;;;;;3.70;1.60;;;;;;;;;;110185;1249;37476;-34
2022/09/15 14:14:28;;;;;;;;;;;;;;;;;;110174;1250;36805;-34
2022/09/15 14:16:58;;;;;;;4.50;1.60;;;;;;;;;;110218;1250;34745;-34
2022/09/15 14:19:34;;;;;;;3.70;2.00;;;;;;;;;;110149;1251;36624;-34
2022/09/15 14:22:26;;;;;;;4.00;1.50;;;;;;;;;;110216;1250;36857;-33
2022/09/15 14:24:58;;;;;;;3.70;1.60;;;;;;;;;;110315;1250;34615;-34
2022/09/15 14:27:32;;;;;;;4.00;1.50;;;;;;;;;;109898;1250;420848;-34
2022/09/15 14:30:09;;;;;;;3.60;1.50;;;;;;;;;;110224;1250;34372;-34
2022/09/15 14:32:50;;;;;;;3.60;1.30;;;;;;;;;;110229;1250;36917;-32
2022/09/15 14:35:24;;;;;;;3.90;1.20;;;;;;;;;;110038;1250;40574;-32
2022/09/15 14:37:58;;;;;;;5.90;1.80;;;;;;;;;;110124;1252;36439;-30
2022/09/15 14:40:32;;;;;;;5.40;1.80;;;;;;;;;;110019;1251;36602;-31
2022/09/15 14:43:03;;;;;;;4.20;1.60;;;;;;;;;;110101;1251;36942;-31
2022/09/15 14:45:40;;;;;;;5.10;1.50;;;;;;;;;;110058;1250;42156;-32
2022/09/15 14:48:19;;;;;;;3.90;1.30;;;;;;;;;;110098;1251;37116;-32
2022/09/15 14:51:00;;;;;;;4.10;1.60;;;;;;;;;;110073;1250;34304;-31
2022/09/15 14:53:33;;;;;;;4.10;1.40;;;;;;;;;;110182;1250;34976;-30
2022/09/15 14:56:08;;;;;;;3.20;1.30;;;;;;;;;;110205;1249;34034;-32
2022/09/15 14:58:46;;;;;;;3.60;1.40;;;;;;;;;;110137;1250;36870;-32
2022/09/15 15:01:21;;;;;;;3.90;1.20;;;;;;;;;;110179;1250;36878;-31
2022/09/15 15:04:02;;;;;;;4.00;1.30;;;;;;;;;;110151;1250;35060;-31
2022/09/15 15:06:38;;;;;;;3.30;1.20;;;;;;;;;;110152;1250;34334;-31
2022/09/15 15:09:20;;;;;;;3.10;1.40;;;;;;;;;;110160;1250;36450;-31
2022/09/15 15:11:53;;;;;;;3.00;1.20;;;;;;;;;;110136;1250;36482;-31
2022/09/15 15:14:24;;;;;;;4.60;1.50;;;;;;;;;;110142;1250;37081;-32
2022/09/15 15:17:04;;;;;;;3.50;1.40;;;;;;;;;;110125;1250;34971;-31
2022/09/15 15:19:37;;;;;;;3.50;1.40;;;;;;;;;;110133;1250;36474;-31
2022/09/15 15:22:08;;;;;;;;;;;;;;;;;;110132;1250;37227;-31